sensor_id;sensor_type;location;lat;lon;timestamp;P1;durP1;ratioP1;P2;durP2;ratioP2
6955;SDS011;50345;51.136;16.886;2023-11-21T00:01:53;5.27;;;3.10;;
6955;SDS011;50345;51.136;16.886;2023-11-21T00:04:19;4.20;;;2.90;;
6955;SDS011;50345;51.136;16.886;2023-11-21T00:06:45;7.03;;;3.40;;
6955;SDS011;50345;51.136;16.886;2023-11-21T00:09:12;3.60;;;2.78;;
6955;SDS011;50345;51.136;16.886;2023-11-21T00:11:38;6.38;;;2.70;;
6955;SDS011;50345;51.136;16.886;2023-11-21T00:14:04;9.00;;;3.47;;
6955;SDS011;50345;51.136;16.886;2023-11-21T00:16:29;3.67;;;2.93;;
6955;SDS011;50345;51.136;16.886;2023-11-21T00:18:55;4.53;;;2.67;;
6955;SDS011;50345;51.136;16.886;2023-11-21T00:21:20;4.03;;;2.70;;
6955;SDS011;50345;51.136;16.886;2023-11-21T00:23:46;3.47;;;2.87;;
6955;SDS011;50345;51.136;16.886;2023-11-21T00:26:11;7.97;;;3.60;;
6955;SDS011;50345;51.136;16.886;2023-11-21T00:28:37;2.73;;;2.53;;
6955;SDS011;50345;51.136;16.886;2023-11-21T00:31:03;4.23;;;2.83;;
6955;SDS011;50345;51.136;16.886;2023-11-21T00:33:29;6.90;;;3.60;;
6955;SDS011;50345;51.136;16.886;2023-11-21T00:35:54;5.47;;;3.17;;
6955;SDS011;50345;51.136;16.886;2023-11-21T00:38:20;3.87;;;2.70;;
6955;SDS011;50345;51.136;16.886;2023-11-21T00:40:46;4.53;;;2.80;;
6955;SDS011;50345;51.136;16.886;2023-11-21T00:43:11;3.07;;;2.77;;
6955;SDS011;50345;51.136;16.886;2023-11-21T00:45:37;10.53;;;3.40;;
6955;SDS011;50345;51.136;16.886;2023-11-21T00:48:02;3.50;;;3.00;;
6955;SDS011;50345;51.136;16.886;2023-11-21T00:50:29;6.07;;;4.35;;
6955;SDS011;50345;51.136;16.886;2023-11-21T00:52:55;4.10;;;3.23;;
6955;SDS011;50345;51.136;16.886;2023-11-21T00:55:21;4.70;;;3.10;;
6955;SDS011;50345;51.136;16.886;2023-11-21T00:57:47;3.57;;;2.33;;
6955;SDS011;50345;51.136;16.886;2023-11-21T01:00:13;7.07;;;2.67;;
6955;SDS011;50345;51.136;16.886;2023-11-21T01:02:42;4.82;;;3.00;;
6955;SDS011;50345;51.136;16.886;2023-11-21T01:05:09;3.90;;;3.10;;
6955;SDS011;50345;51.136;16.886;2023-11-21T01:07:35;4.20;;;2.80;;
6955;SDS011;50345;51.136;16.886;2023-11-21T01:10:02;4.07;;;2.75;;
6955;SDS011;50345;51.136;16.886;2023-11-21T01:12:30;5.78;;;2.50;;
6955;SDS011;50345;51.136;16.886;2023-11-21T01:14:56;4.53;;;3.27;;
6955;SDS011;50345;51.136;16.886;2023-11-21T01:17:25;4.68;;;2.20;;
6955;SDS011;50345;51.136;16.886;2023-11-21T01:19:52;8.20;;;3.33;;
6955;SDS011;50345;51.136;16.886;2023-11-21T01:22:17;2.77;;;2.57;;
6955;SDS011;50345;51.136;16.886;2023-11-21T01:24:47;4.50;;;2.70;;
6955;SDS011;50345;51.136;16.886;2023-11-21T01:27:12;6.50;;;2.50;;
6955;SDS011;50345;51.136;16.886;2023-11-21T01:29:38;4.90;;;3.30;;
6955;SDS011;50345;51.136;16.886;2023-11-21T01:32:04;5.80;;;2.45;;
6955;SDS011;50345;51.136;16.886;2023-11-21T01:34:32;3.00;;;2.35;;
6955;SDS011;50345;51.136;16.886;2023-11-21T01:36:58;6.80;;;2.27;;
6955;SDS011;50345;51.136;16.886;2023-11-21T01:39:24;5.07;;;3.57;;
6955;SDS011;50345;51.136;16.886;2023-11-21T01:41:50;5.15;;;3.15;;
6955;SDS011;50345;51.136;16.886;2023-11-21T01:44:17;2.78;;;2.58;;
6955;SDS011;50345;51.136;16.886;2023-11-21T01:46:44;5.90;;;3.20;;
6955;SDS011;50345;51.136;16.886;2023-11-21T01:49:11;5.13;;;2.92;;
6955;SDS011;50345;51.136;16.886;2023-11-21T01:51:38;4.25;;;2.70;;
6955;SDS011;50345;51.136;16.886;2023-11-21T01:54:05;5.25;;;3.55;;
6955;SDS011;50345;51.136;16.886;2023-11-21T01:56:32;3.28;;;2.22;;
6955;SDS011;50345;51.136;16.886;2023-11-21T01:58:57;5.72;;;2.85;;
6955;SDS011;50345;51.136;16.886;2023-11-21T02:01:23;5.13;;;2.40;;
6955;SDS011;50345;51.136;16.886;2023-11-21T02:03:50;3.85;;;3.38;;
6955;SDS011;50345;51.136;16.886;2023-11-21T02:06:16;3.60;;;2.80;;
6955;SDS011;50345;51.136;16.886;2023-11-21T02:08:43;3.92;;;3.53;;
6955;SDS011;50345;51.136;16.886;2023-11-21T02:11:09;5.05;;;3.45;;
6955;SDS011;50345;51.136;16.886;2023-11-21T02:13:37;6.07;;;2.80;;
6955;SDS011;50345;51.136;16.886;2023-11-21T02:16:07;4.70;;;3.00;;
6955;SDS011;50345;51.136;16.886;2023-11-21T02:18:34;3.30;;;2.53;;
6955;SDS011;50345;51.136;16.886;2023-11-21T02:21:01;5.05;;;3.25;;
6955;SDS011;50345;51.136;16.886;2023-11-21T02:23:29;3.70;;;3.00;;
6955;SDS011;50345;51.136;16.886;2023-11-21T02:25:55;4.53;;;3.57;;
6955;SDS011;50345;51.136;16.886;2023-11-21T02:28:21;3.80;;;2.70;;
6955;SDS011;50345;51.136;16.886;2023-11-21T02:30:50;8.93;;;3.42;;
6955;SDS011;50345;51.136;16.886;2023-11-21T02:33:20;5.00;;;3.10;;
6955;SDS011;50345;51.136;16.886;2023-11-21T02:35:46;3.40;;;2.35;;
6955;SDS011;50345;51.136;16.886;2023-11-21T02:38:12;7.10;;;3.50;;
6955;SDS011;50345;51.136;16.886;2023-11-21T02:40:38;4.75;;;2.97;;
6955;SDS011;50345;51.136;16.886;2023-11-21T02:43:04;3.50;;;3.20;;
6955;SDS011;50345;51.136;16.886;2023-11-21T02:45:30;4.07;;;3.50;;
6955;SDS011;50345;51.136;16.886;2023-11-21T02:47:56;4.00;;;2.83;;
6955;SDS011;50345;51.136;16.886;2023-11-21T02:50:22;6.07;;;3.15;;
6955;SDS011;50345;51.136;16.886;2023-11-21T02:52:48;5.10;;;3.70;;
6955;SDS011;50345;51.136;16.886;2023-11-21T02:55:14;5.57;;;3.30;;
6955;SDS011;50345;51.136;16.886;2023-11-21T02:57:39;6.13;;;3.50;;
6955;SDS011;50345;51.136;16.886;2023-11-21T03:00:05;5.30;;;3.47;;
6955;SDS011;50345;51.136;16.886;2023-11-21T03:02:41;4.63;;;3.60;;
6955;SDS011;50345;51.136;16.886;2023-11-21T03:05:07;7.93;;;4.10;;
6955;SDS011;50345;51.136;16.886;2023-11-21T03:07:36;4.13;;;3.63;;
6955;SDS011;50345;51.136;16.886;2023-11-21T03:10:03;5.40;;;3.50;;
6955;SDS011;50345;51.136;16.886;2023-11-21T03:12:29;10.25;;;3.90;;
6955;SDS011;50345;51.136;16.886;2023-11-21T03:14:55;4.90;;;3.30;;
6955;SDS011;50345;51.136;16.886;2023-11-21T03:17:20;8.13;;;3.97;;
6955;SDS011;50345;51.136;16.886;2023-11-21T03:19:46;5.23;;;3.70;;
6955;SDS011;50345;51.136;16.886;2023-11-21T03:22:12;4.97;;;3.70;;
6955;SDS011;50345;51.136;16.886;2023-11-21T03:24:38;7.80;;;4.28;;
6955;SDS011;50345;51.136;16.886;2023-11-21T03:27:04;6.53;;;4.87;;
6955;SDS011;50345;51.136;16.886;2023-11-21T03:29:29;5.28;;;4.13;;
6955;SDS011;50345;51.136;16.886;2023-11-21T03:31:55;4.60;;;3.20;;
6955;SDS011;50345;51.136;16.886;2023-11-21T03:34:25;5.17;;;3.83;;
6955;SDS011;50345;51.136;16.886;2023-11-21T03:36:51;7.38;;;4.57;;
6955;SDS011;50345;51.136;16.886;2023-11-21T03:39:18;7.85;;;4.70;;
6955;SDS011;50345;51.136;16.886;2023-11-21T03:41:47;8.07;;;5.43;;
6955;SDS011;50345;51.136;16.886;2023-11-21T03:44:13;10.55;;;5.40;;
6955;SDS011;50345;51.136;16.886;2023-11-21T03:46:39;5.72;;;4.78;;
6955;SDS011;50345;51.136;16.886;2023-11-21T03:49:05;10.00;;;5.10;;
6955;SDS011;50345;51.136;16.886;2023-11-21T03:51:32;7.78;;;3.67;;
6955;SDS011;50345;51.136;16.886;2023-11-21T03:53:59;9.40;;;4.78;;
6955;SDS011;50345;51.136;16.886;2023-11-21T03:56:24;7.73;;;4.00;;
6955;SDS011;50345;51.136;16.886;2023-11-21T03:58:50;7.30;;;4.67;;
6955;SDS011;50345;51.136;16.886;2023-11-21T04:01:19;9.43;;;5.37;;
6955;SDS011;50345;51.136;16.886;2023-11-21T04:03:51;4.30;;;4.00;;
6955;SDS011;50345;51.136;16.886;2023-11-21T04:06:17;4.60;;;4.10;;
6955;SDS011;50345;51.136;16.886;2023-11-21T04:08:46;5.35;;;3.70;;
6955;SDS011;50345;51.136;16.886;2023-11-21T04:11:12;4.25;;;3.85;;
6955;SDS011;50345;51.136;16.886;2023-11-21T04:13:38;4.80;;;3.90;;
6955;SDS011;50345;51.136;16.886;2023-11-21T04:16:05;6.20;;;3.58;;
6955;SDS011;50345;51.136;16.886;2023-11-21T04:18:31;5.78;;;3.90;;
6955;SDS011;50345;51.136;16.886;2023-11-21T04:20:57;9.67;;;3.90;;
6955;SDS011;50345;51.136;16.886;2023-11-21T04:23:23;8.20;;;3.97;;
6955;SDS011;50345;51.136;16.886;2023-11-21T04:25:48;4.60;;;3.43;;
6955;SDS011;50345;51.136;16.886;2023-11-21T04:28:14;5.80;;;3.33;;
6955;SDS011;50345;51.136;16.886;2023-11-21T04:30:39;5.57;;;4.07;;
6955;SDS011;50345;51.136;16.886;2023-11-21T04:33:05;5.10;;;3.60;;
6955;SDS011;50345;51.136;16.886;2023-11-21T04:35:32;4.88;;;4.28;;
6955;SDS011;50345;51.136;16.886;2023-11-21T04:37:58;5.03;;;3.87;;
6955;SDS011;50345;51.136;16.886;2023-11-21T04:40:23;5.50;;;3.57;;
6955;SDS011;50345;51.136;16.886;2023-11-21T04:42:49;5.47;;;4.67;;
6955;SDS011;50345;51.136;16.886;2023-11-21T04:45:14;4.80;;;3.90;;
6955;SDS011;50345;51.136;16.886;2023-11-21T04:47:40;6.60;;;4.40;;
6955;SDS011;50345;51.136;16.886;2023-11-21T04:50:06;5.70;;;5.07;;
6955;SDS011;50345;51.136;16.886;2023-11-21T04:52:32;5.43;;;4.93;;
6955;SDS011;50345;51.136;16.886;2023-11-21T04:54:58;5.43;;;4.87;;
6955;SDS011;50345;51.136;16.886;2023-11-21T04:57:25;5.55;;;4.07;;
6955;SDS011;50345;51.136;16.886;2023-11-21T04:59:53;5.35;;;4.22;;
6955;SDS011;50345;51.136;16.886;2023-11-21T05:02:19;5.07;;;4.47;;
6955;SDS011;50345;51.136;16.886;2023-11-21T05:04:46;6.03;;;4.40;;
6955;SDS011;50345;51.136;16.886;2023-11-21T05:07:12;9.32;;;5.88;;
6955;SDS011;50345;51.136;16.886;2023-11-21T05:09:41;7.00;;;5.03;;
6955;SDS011;50345;51.136;16.886;2023-11-21T05:12:09;6.80;;;3.67;;
6955;SDS011;50345;51.136;16.886;2023-11-21T05:14:35;4.57;;;3.95;;
6955;SDS011;50345;51.136;16.886;2023-11-21T05:17:01;5.43;;;4.70;;
6955;SDS011;50345;51.136;16.886;2023-11-21T05:19:26;7.87;;;5.23;;
6955;SDS011;50345;51.136;16.886;2023-11-21T05:21:52;5.57;;;4.73;;
6955;SDS011;50345;51.136;16.886;2023-11-21T05:24:17;6.00;;;4.63;;
6955;SDS011;50345;51.136;16.886;2023-11-21T05:26:43;6.50;;;4.20;;
6955;SDS011;50345;51.136;16.886;2023-11-21T05:29:09;10.40;;;5.37;;
6955;SDS011;50345;51.136;16.886;2023-11-21T05:31:35;4.68;;;4.15;;
6955;SDS011;50345;51.136;16.886;2023-11-21T05:34:01;5.43;;;3.77;;
6955;SDS011;50345;51.136;16.886;2023-11-21T05:36:28;5.07;;;3.78;;
6955;SDS011;50345;51.136;16.886;2023-11-21T05:38:54;5.40;;;4.53;;
6955;SDS011;50345;51.136;16.886;2023-11-21T05:41:19;6.03;;;4.43;;
6955;SDS011;50345;51.136;16.886;2023-11-21T05:43:45;8.07;;;4.07;;
6955;SDS011;50345;51.136;16.886;2023-11-21T05:46:10;7.10;;;5.07;;
6955;SDS011;50345;51.136;16.886;2023-11-21T05:48:36;5.80;;;4.30;;
6955;SDS011;50345;51.136;16.886;2023-11-21T05:51:03;5.60;;;4.80;;
6955;SDS011;50345;51.136;16.886;2023-11-21T05:53:32;5.90;;;4.30;;
6955;SDS011;50345;51.136;16.886;2023-11-21T05:55:57;8.70;;;3.97;;
6955;SDS011;50345;51.136;16.886;2023-11-21T05:58:23;5.10;;;4.20;;
6955;SDS011;50345;51.136;16.886;2023-11-21T06:00:49;5.10;;;4.60;;
6955;SDS011;50345;51.136;16.886;2023-11-21T06:03:14;9.50;;;8.10;;
6955;SDS011;50345;51.136;16.886;2023-11-21T06:05:40;5.07;;;4.53;;
6955;SDS011;50345;51.136;16.886;2023-11-21T06:08:05;6.17;;;5.53;;
6955;SDS011;50345;51.136;16.886;2023-11-21T06:10:32;4.43;;;4.03;;
6955;SDS011;50345;51.136;16.886;2023-11-21T06:12:58;4.20;;;3.80;;
6955;SDS011;50345;51.136;16.886;2023-11-21T06:15:23;6.13;;;4.10;;
6955;SDS011;50345;51.136;16.886;2023-11-21T06:17:51;9.73;;;4.10;;
6955;SDS011;50345;51.136;16.886;2023-11-21T06:20:17;6.05;;;3.50;;
6955;SDS011;50345;51.136;16.886;2023-11-21T06:22:44;6.55;;;4.10;;
6955;SDS011;50345;51.136;16.886;2023-11-21T06:25:12;4.68;;;3.03;;
6955;SDS011;50345;51.136;16.886;2023-11-21T06:27:39;7.15;;;3.88;;
6955;SDS011;50345;51.136;16.886;2023-11-21T06:30:05;3.75;;;3.38;;
6955;SDS011;50345;51.136;16.886;2023-11-21T06:32:31;4.25;;;3.80;;
6955;SDS011;50345;51.136;16.886;2023-11-21T06:34:57;4.27;;;3.40;;
6955;SDS011;50345;51.136;16.886;2023-11-21T06:37:25;5.30;;;4.35;;
6955;SDS011;50345;51.136;16.886;2023-11-21T06:39:51;8.02;;;6.45;;
6955;SDS011;50345;51.136;16.886;2023-11-21T06:42:17;6.00;;;4.37;;
6955;SDS011;50345;51.136;16.886;2023-11-21T06:44:44;5.78;;;4.65;;
6955;SDS011;50345;51.136;16.886;2023-11-21T06:47:10;12.00;;;4.20;;
6955;SDS011;50345;51.136;16.886;2023-11-21T06:49:36;11.33;;;5.20;;
6955;SDS011;50345;51.136;16.886;2023-11-21T06:52:03;7.63;;;4.93;;
6955;SDS011;50345;51.136;16.886;2023-11-21T06:54:30;4.93;;;4.17;;
6955;SDS011;50345;51.136;16.886;2023-11-21T06:56:56;6.72;;;5.43;;
6955;SDS011;50345;51.136;16.886;2023-11-21T06:59:22;6.93;;;5.13;;
6955;SDS011;50345;51.136;16.886;2023-11-21T07:01:48;5.85;;;4.53;;
6955;SDS011;50345;51.136;16.886;2023-11-21T07:04:14;7.43;;;5.47;;
6955;SDS011;50345;51.136;16.886;2023-11-21T07:06:40;7.10;;;4.70;;
6955;SDS011;50345;51.136;16.886;2023-11-21T07:09:06;8.57;;;4.40;;
6955;SDS011;50345;51.136;16.886;2023-11-21T07:11:33;10.98;;;5.10;;
6955;SDS011;50345;51.136;16.886;2023-11-21T07:13:59;10.32;;;6.15;;
6955;SDS011;50345;51.136;16.886;2023-11-21T07:16:27;6.28;;;5.72;;
6955;SDS011;50345;51.136;16.886;2023-11-21T07:18:55;7.32;;;5.72;;
6955;SDS011;50345;51.136;16.886;2023-11-21T07:21:21;8.70;;;5.50;;
6955;SDS011;50345;51.136;16.886;2023-11-21T07:23:46;6.73;;;5.50;;
6955;SDS011;50345;51.136;16.886;2023-11-21T07:26:12;5.80;;;5.30;;
6955;SDS011;50345;51.136;16.886;2023-11-21T07:28:37;10.17;;;6.30;;
6955;SDS011;50345;51.136;16.886;2023-11-21T07:31:03;6.13;;;4.63;;
6955;SDS011;50345;51.136;16.886;2023-11-21T07:33:29;10.63;;;5.80;;
6955;SDS011;50345;51.136;16.886;2023-11-21T07:35:54;17.17;;;5.73;;
6955;SDS011;50345;51.136;16.886;2023-11-21T07:38:20;8.00;;;5.10;;
6955;SDS011;50345;51.136;16.886;2023-11-21T07:40:45;6.27;;;5.03;;
6955;SDS011;50345;51.136;16.886;2023-11-21T07:43:11;7.37;;;4.53;;
6955;SDS011;50345;51.136;16.886;2023-11-21T07:45:36;12.17;;;10.20;;
6955;SDS011;50345;51.136;16.886;2023-11-21T07:48:02;8.70;;;5.83;;
6955;SDS011;50345;51.136;16.886;2023-11-21T07:50:30;8.35;;;5.45;;
6955;SDS011;50345;51.136;16.886;2023-11-21T07:52:56;8.68;;;5.93;;
6955;SDS011;50345;51.136;16.886;2023-11-21T07:55:22;7.43;;;5.47;;
6955;SDS011;50345;51.136;16.886;2023-11-21T07:57:49;9.05;;;6.65;;
6955;SDS011;50345;51.136;16.886;2023-11-21T08:00:15;7.63;;;6.37;;
6955;SDS011;50345;51.136;16.886;2023-11-21T08:02:41;8.25;;;5.05;;
6955;SDS011;50345;51.136;16.886;2023-11-21T08:05:07;8.07;;;6.37;;
6955;SDS011;50345;51.136;16.886;2023-11-21T08:07:33;6.60;;;5.00;;
6955;SDS011;50345;51.136;16.886;2023-11-21T08:09:59;5.77;;;4.80;;
6955;SDS011;50345;51.136;16.886;2023-11-21T08:12:25;6.70;;;4.83;;
6955;SDS011;50345;51.136;16.886;2023-11-21T08:14:52;8.93;;;4.25;;
6955;SDS011;50345;51.136;16.886;2023-11-21T08:17:18;5.30;;;4.10;;
6955;SDS011;50345;51.136;16.886;2023-11-21T08:19:45;7.15;;;4.95;;
6955;SDS011;50345;51.136;16.886;2023-11-21T08:22:14;7.97;;;4.40;;
6955;SDS011;50345;51.136;16.886;2023-11-21T08:24:41;6.40;;;5.10;;
6955;SDS011;50345;51.136;16.886;2023-11-21T08:27:06;6.33;;;5.20;;
6955;SDS011;50345;51.136;16.886;2023-11-21T08:29:32;7.57;;;5.83;;
6955;SDS011;50345;51.136;16.886;2023-11-21T08:31:59;10.27;;;5.50;;
6955;SDS011;50345;51.136;16.886;2023-11-21T08:34:25;9.30;;;6.57;;
6955;SDS011;50345;51.136;16.886;2023-11-21T08:36:50;8.47;;;6.40;;
6955;SDS011;50345;51.136;16.886;2023-11-21T08:39:16;5.90;;;5.40;;
6955;SDS011;50345;51.136;16.886;2023-11-21T08:41:44;8.02;;;5.55;;
6955;SDS011;50345;51.136;16.886;2023-11-21T08:44:09;6.13;;;5.63;;
6955;SDS011;50345;51.136;16.886;2023-11-21T08:46:35;12.07;;;6.95;;
6955;SDS011;50345;51.136;16.886;2023-11-21T08:49:03;5.85;;;5.35;;
6955;SDS011;50345;51.136;16.886;2023-11-21T08:51:29;9.95;;;5.95;;
6955;SDS011;50345;51.136;16.886;2023-11-21T08:53:54;6.53;;;5.93;;
6955;SDS011;50345;51.136;16.886;2023-11-21T08:56:24;9.18;;;5.60;;
6955;SDS011;50345;51.136;16.886;2023-11-21T08:58:49;9.87;;;6.33;;
6955;SDS011;50345;51.136;16.886;2023-11-21T09:01:15;8.97;;;7.23;;
6955;SDS011;50345;51.136;16.886;2023-11-21T09:03:42;6.07;;;5.18;;
6955;SDS011;50345;51.136;16.886;2023-11-21T09:06:08;9.30;;;5.45;;
6955;SDS011;50345;51.136;16.886;2023-11-21T09:08:34;8.00;;;5.43;;
6955;SDS011;50345;51.136;16.886;2023-11-21T09:11:00;5.40;;;4.23;;
6955;SDS011;50345;51.136;16.886;2023-11-21T09:13:26;7.70;;;6.43;;
6955;SDS011;50345;51.136;16.886;2023-11-21T09:15:51;10.80;;;6.73;;
6955;SDS011;50345;51.136;16.886;2023-11-21T09:18:17;6.23;;;4.80;;
6955;SDS011;50345;51.136;16.886;2023-11-21T09:20:42;7.37;;;5.80;;
6955;SDS011;50345;51.136;16.886;2023-11-21T09:23:11;7.15;;;4.60;;
6955;SDS011;50345;51.136;16.886;2023-11-21T09:25:37;5.53;;;4.65;;
6955;SDS011;50345;51.136;16.886;2023-11-21T09:28:03;6.23;;;4.40;;
6955;SDS011;50345;51.136;16.886;2023-11-21T09:30:33;6.65;;;4.00;;
6955;SDS011;50345;51.136;16.886;2023-11-21T09:33:01;10.38;;;7.20;;
6955;SDS011;50345;51.136;16.886;2023-11-21T09:35:27;4.45;;;4.15;;
6955;SDS011;50345;51.136;16.886;2023-11-21T09:37:53;6.37;;;5.00;;
6955;SDS011;50345;51.136;16.886;2023-11-21T09:40:20;5.80;;;5.30;;
6955;SDS011;50345;51.136;16.886;2023-11-21T09:42:57;5.22;;;4.72;;
6955;SDS011;50345;51.136;16.886;2023-11-21T09:47:53;13.07;;;11.55;;
6955;SDS011;50345;51.136;16.886;2023-11-21T09:50:20;8.55;;;6.05;;
6955;SDS011;50345;51.136;16.886;2023-11-21T09:55:44;5.90;;;5.00;;
6955;SDS011;50345;51.136;16.886;2023-11-21T09:58:10;6.38;;;5.00;;
6955;SDS011;50345;51.136;16.886;2023-11-21T10:00:42;9.35;;;6.43;;
6955;SDS011;50345;51.136;16.886;2023-11-21T10:03:10;5.85;;;5.35;;
6955;SDS011;50345;51.136;16.886;2023-11-21T10:05:36;6.05;;;5.55;;
6955;SDS011;50345;51.136;16.886;2023-11-21T10:08:09;6.15;;;5.55;;
6955;SDS011;50345;51.136;16.886;2023-11-21T10:10:36;6.75;;;6.15;;
6955;SDS011;50345;51.136;16.886;2023-11-21T10:13:04;7.25;;;5.88;;
6955;SDS011;50345;51.136;16.886;2023-11-21T10:15:33;8.82;;;7.43;;
6955;SDS011;50345;51.136;16.886;2023-11-21T10:18:00;7.32;;;6.72;;
6955;SDS011;50345;51.136;16.886;2023-11-21T10:20:32;8.07;;;7.07;;
6955;SDS011;50345;51.136;16.886;2023-11-21T10:23:03;4.90;;;4.40;;
6955;SDS011;50345;51.136;16.886;2023-11-21T10:25:29;5.03;;;4.45;;
6955;SDS011;50345;51.136;16.886;2023-11-21T10:27:59;7.05;;;4.60;;
6955;SDS011;50345;51.136;16.886;2023-11-21T10:30:36;4.53;;;4.10;;
6955;SDS011;50345;51.136;16.886;2023-11-21T10:33:06;5.10;;;3.80;;
6955;SDS011;50345;51.136;16.886;2023-11-21T10:35:45;5.22;;;3.25;;
6955;SDS011;50345;51.136;16.886;2023-11-21T10:38:13;5.00;;;4.20;;
6955;SDS011;50345;51.136;16.886;2023-11-21T10:40:42;5.07;;;3.20;;
6955;SDS011;50345;51.136;16.886;2023-11-21T10:43:09;7.65;;;6.30;;
6955;SDS011;50345;51.136;16.886;2023-11-21T10:45:36;8.90;;;8.05;;
6955;SDS011;50345;51.136;16.886;2023-11-21T10:48:04;10.77;;;9.55;;
6955;SDS011;50345;51.136;16.886;2023-11-21T10:50:43;13.80;;;12.40;;
6955;SDS011;50345;51.136;16.886;2023-11-21T10:53:10;15.25;;;12.68;;
6955;SDS011;50345;51.136;16.886;2023-11-21T10:55:37;15.30;;;12.88;;
6955;SDS011;50345;51.136;16.886;2023-11-21T10:58:03;20.10;;;15.00;;
6955;SDS011;50345;51.136;16.886;2023-11-21T11:00:30;19.45;;;16.05;;
6955;SDS011;50345;51.136;16.886;2023-11-21T11:02:56;16.75;;;15.10;;
6955;SDS011;50345;51.136;16.886;2023-11-21T11:05:24;16.85;;;13.45;;
6955;SDS011;50345;51.136;16.886;2023-11-21T11:08:04;18.15;;;12.98;;
6955;SDS011;50345;51.136;16.886;2023-11-21T11:10:31;14.57;;;13.10;;
6955;SDS011;50345;51.136;16.886;2023-11-21T11:12:58;13.45;;;12.10;;
6955;SDS011;50345;51.136;16.886;2023-11-21T11:15:24;14.35;;;11.77;;
6955;SDS011;50345;51.136;16.886;2023-11-21T11:17:51;14.30;;;12.80;;
6955;SDS011;50345;51.136;16.886;2023-11-21T11:20:21;19.35;;;13.35;;
6955;SDS011;50345;51.136;16.886;2023-11-21T11:23:04;16.92;;;13.50;;
6955;SDS011;50345;51.136;16.886;2023-11-21T11:25:57;13.90;;;11.60;;
6955;SDS011;50345;51.136;16.886;2023-11-21T11:37:23;15.15;;;13.00;;
6955;SDS011;50345;51.136;16.886;2023-11-21T11:39:49;17.40;;;13.73;;
6955;SDS011;50345;51.136;16.886;2023-11-21T11:42:15;16.97;;;14.17;;
6955;SDS011;50345;51.136;16.886;2023-11-21T11:47:31;17.80;;;15.88;;
6955;SDS011;50345;51.136;16.886;2023-11-21T11:50:11;24.17;;;19.00;;
6955;SDS011;50345;51.136;16.886;2023-11-21T11:52:50;20.02;;;16.17;;
6955;SDS011;50345;51.136;16.886;2023-11-21T11:55:18;18.45;;;16.00;;
6955;SDS011;50345;51.136;16.886;2023-11-21T11:57:45;17.38;;;14.88;;
6955;SDS011;50345;51.136;16.886;2023-11-21T12:00:16;16.65;;;14.90;;
6955;SDS011;50345;51.136;16.886;2023-11-21T12:02:50;17.13;;;14.30;;
6955;SDS011;50345;51.136;16.886;2023-11-21T12:05:19;13.98;;;12.02;;
6955;SDS011;50345;51.136;16.886;2023-11-21T12:07:56;18.95;;;15.00;;
6955;SDS011;50345;51.136;16.886;2023-11-21T12:15:18;15.45;;;11.80;;
6955;SDS011;50345;51.136;16.886;2023-11-21T12:17:45;13.15;;;11.77;;
6955;SDS011;50345;51.136;16.886;2023-11-21T12:20:12;13.68;;;11.25;;
6955;SDS011;50345;51.136;16.886;2023-11-21T12:22:48;11.55;;;9.57;;
6955;SDS011;50345;51.136;16.886;2023-11-21T12:25:18;10.57;;;9.02;;
6955;SDS011;50345;51.136;16.886;2023-11-21T12:27:46;11.98;;;10.73;;
6955;SDS011;50345;51.136;16.886;2023-11-21T12:30:14;9.13;;;7.38;;
6955;SDS011;50345;51.136;16.886;2023-11-21T12:32:47;8.77;;;7.30;;
6955;SDS011;50345;51.136;16.886;2023-11-21T12:35:14;10.35;;;8.45;;
6955;SDS011;50345;51.136;16.886;2023-11-21T12:37:41;11.23;;;10.23;;
6955;SDS011;50345;51.136;16.886;2023-11-21T12:40:10;10.38;;;9.38;;
6955;SDS011;50345;51.136;16.886;2023-11-21T12:42:40;13.80;;;12.38;;
6955;SDS011;50345;51.136;16.886;2023-11-21T12:47:43;10.07;;;8.48;;
6955;SDS011;50345;51.136;16.886;2023-11-21T12:50:10;8.35;;;7.43;;
6955;SDS011;50345;51.136;16.886;2023-11-21T12:52:44;8.25;;;7.32;;
6955;SDS011;50345;51.136;16.886;2023-11-21T12:55:17;12.00;;;9.65;;
6955;SDS011;50345;51.136;16.886;2023-11-21T12:57:47;10.90;;;9.10;;
6955;SDS011;50345;51.136;16.886;2023-11-21T13:00:16;7.55;;;6.65;;
6955;SDS011;50345;51.136;16.886;2023-11-21T13:02:56;6.03;;;5.53;;
6955;SDS011;50345;51.136;16.886;2023-11-21T13:05:26;7.43;;;6.70;;
6955;SDS011;50345;51.136;16.886;2023-11-21T13:07:56;6.97;;;6.28;;
6955;SDS011;50345;51.136;16.886;2023-11-21T13:10:24;8.85;;;6.63;;
6955;SDS011;50345;51.136;16.886;2023-11-21T13:12:56;7.25;;;6.53;;
6955;SDS011;50345;51.136;16.886;2023-11-21T13:15:23;9.02;;;6.82;;
6955;SDS011;50345;51.136;16.886;2023-11-21T13:17:50;9.82;;;7.78;;
6955;SDS011;50345;51.136;16.886;2023-11-21T13:20:18;7.28;;;6.63;;
6955;SDS011;50345;51.136;16.886;2023-11-21T13:22:52;11.85;;;6.03;;
6955;SDS011;50345;51.136;16.886;2023-11-21T13:25:26;7.18;;;6.43;;
6955;SDS011;50345;51.136;16.886;2023-11-21T13:27:53;8.00;;;7.30;;
6955;SDS011;50345;51.136;16.886;2023-11-21T13:30:23;6.90;;;6.05;;
6955;SDS011;50345;51.136;16.886;2023-11-21T13:32:53;6.95;;;6.10;;
6955;SDS011;50345;51.136;16.886;2023-11-21T13:35:22;9.10;;;8.30;;
6955;SDS011;50345;51.136;16.886;2023-11-21T13:37:56;8.32;;;7.45;;
6955;SDS011;50345;51.136;16.886;2023-11-21T13:40:25;16.75;;;11.55;;
6955;SDS011;50345;51.136;16.886;2023-11-21T13:42:52;7.70;;;6.95;;
6955;SDS011;50345;51.136;16.886;2023-11-21T13:45:19;8.45;;;6.47;;
6955;SDS011;50345;51.136;16.886;2023-11-21T13:47:48;9.90;;;8.00;;
6955;SDS011;50345;51.136;16.886;2023-11-21T13:50:20;13.38;;;7.38;;
6955;SDS011;50345;51.136;16.886;2023-11-21T13:52:49;7.38;;;6.60;;
6955;SDS011;50345;51.136;16.886;2023-11-21T13:55:19;11.60;;;8.00;;
6955;SDS011;50345;51.136;16.886;2023-11-21T13:57:45;8.68;;;7.07;;
6955;SDS011;50345;51.136;16.886;2023-11-21T14:00:14;10.30;;;7.57;;
6955;SDS011;50345;51.136;16.886;2023-11-21T14:03:15;10.13;;;6.80;;
6955;SDS011;50345;51.136;16.886;2023-11-21T14:05:47;10.98;;;7.30;;
6955;SDS011;50345;51.136;16.886;2023-11-21T14:08:19;9.75;;;8.27;;
6955;SDS011;50345;51.136;16.886;2023-11-21T14:10:46;11.60;;;6.88;;
6955;SDS011;50345;51.136;16.886;2023-11-21T14:13:18;8.57;;;6.45;;
6955;SDS011;50345;51.136;16.886;2023-11-21T14:15:48;7.07;;;6.38;;
6955;SDS011;50345;51.136;16.886;2023-11-21T14:18:22;15.82;;;10.90;;
6955;SDS011;50345;51.136;16.886;2023-11-21T14:20:56;14.50;;;10.57;;
6955;SDS011;50345;51.136;16.886;2023-11-21T14:23:22;10.50;;;9.50;;
6955;SDS011;50345;51.136;16.886;2023-11-21T14:25:48;10.03;;;9.00;;
6955;SDS011;50345;51.136;16.886;2023-11-21T14:28:14;11.80;;;10.68;;
6955;SDS011;50345;51.136;16.886;2023-11-21T14:30:40;10.50;;;9.70;;
6955;SDS011;50345;51.136;16.886;2023-11-21T14:33:07;10.07;;;9.07;;
6955;SDS011;50345;51.136;16.886;2023-11-21T14:35:33;15.18;;;13.02;;
6955;SDS011;50345;51.136;16.886;2023-11-21T14:37:59;13.93;;;12.48;;
6955;SDS011;50345;51.136;16.886;2023-11-21T14:40:26;11.20;;;10.20;;
6955;SDS011;50345;51.136;16.886;2023-11-21T14:42:56;10.80;;;9.75;;
6955;SDS011;50345;51.136;16.886;2023-11-21T14:45:22;10.63;;;9.70;;
6955;SDS011;50345;51.136;16.886;2023-11-21T14:47:51;9.98;;;9.00;;
6955;SDS011;50345;51.136;16.886;2023-11-21T14:50:45;13.05;;;11.95;;
6955;SDS011;50345;51.136;16.886;2023-11-21T14:53:34;17.75;;;14.55;;
6955;SDS011;50345;51.136;16.886;2023-11-21T14:56:17;16.38;;;13.55;;
6955;SDS011;50345;51.136;16.886;2023-11-21T14:58:51;16.48;;;14.75;;
6955;SDS011;50345;51.136;16.886;2023-11-21T15:01:21;15.10;;;13.70;;
6955;SDS011;50345;51.136;16.886;2023-11-21T15:04:09;14.13;;;12.68;;
6955;SDS011;50345;51.136;16.886;2023-11-21T15:06:45;16.58;;;13.77;;
6955;SDS011;50345;51.136;16.886;2023-11-21T15:09:13;14.75;;;13.43;;
6955;SDS011;50345;51.136;16.886;2023-11-21T15:11:38;13.83;;;12.53;;